createdAt,value
2023-01-30T00:01:12.826Z,10.98
2023-01-30T00:03:39.378Z,11.45
2023-01-30T00:06:05.977Z,11.40
2023-01-30T00:08:32.474Z,11.45
2023-01-30T00:11:04.332Z,10.23
2023-01-30T00:13:30.829Z,10.30
2023-01-30T00:15:57.477Z,11.18
2023-01-30T00:18:24.126Z,10.48
2023-01-30T00:20:59.264Z,11.07
2023-01-30T00:23:27.116Z,10.18
2023-01-30T00:25:53.819Z,10.50
2023-01-30T00:28:20.692Z,10.60
2023-01-30T00:30:51.722Z,10.88
2023-01-30T00:33:19.230Z,10.82
2023-01-30T00:35:47.438Z,10.20
2023-01-30T00:38:14.681Z,11.63
2023-01-30T00:40:41.532Z,11.05
2023-01-30T00:43:27.835Z,10.63
2023-01-30T00:46:13.740Z,11.93
2023-01-30T00:48:40.247Z,11.05
2023-01-30T00:51:06.699Z,11.68
2023-01-30T00:53:33.262Z,11.07
2023-01-30T00:55:59.776Z,10.20
2023-01-30T00:58:26.523Z,11.80
2023-01-30T01:00:53.370Z,9.93
2023-01-30T01:03:20.242Z,11.40
2023-01-30T01:05:47.040Z,10.70
2023-01-30T01:08:13.604Z,10.77
2023-01-30T01:10:40.197Z,10.85
2023-01-30T01:13:07.064Z,11.00
2023-01-30T01:15:34.026Z,10.55
2023-01-30T01:18:00.603Z,10.60
2023-01-30T01:20:27.119Z,9.80
2023-01-30T01:22:56.012Z,10.35
2023-01-30T01:25:23.946Z,11.10
2023-01-30T01:27:50.879Z,11.85
2023-01-30T01:30:17.802Z,10.80
2023-01-30T01:32:45.065Z,10.57
2023-01-30T01:35:11.896Z,10.05
2023-01-30T01:37:38.467Z,11.40
2023-01-30T01:40:24.532Z,10.45
2023-01-30T01:42:51.139Z,10.48
2023-01-30T01:45:22.113Z,11.48
2023-01-30T01:48:03.399Z,10.18
2023-01-30T01:50:41.225Z,10.38
2023-01-30T01:53:10.408Z,10.68
2023-01-30T01:55:38.703Z,11.48
2023-01-30T01:58:11.948Z,12.18
2023-01-30T02:00:38.736Z,10.98
2023-01-30T02:03:15.108Z,10.23
2023-01-30T02:05:46.649Z,11.07
2023-01-30T02:08:26.345Z,10.25
2023-01-30T02:11:01.605Z,11.02
2023-01-30T02:13:28.504Z,10.45
2023-01-30T02:16:00.871Z,10.38
2023-01-30T02:18:29.039Z,11.05
2023-01-30T02:21:13.941Z,10.43
2023-01-30T02:24:18.142Z,10.52
2023-01-30T02:26:53.322Z,10.30
2023-01-30T02:29:50.252Z,11.38
2023-01-30T02:33:00.648Z,11.20
2023-01-30T02:35:35.852Z,10.70
2023-01-30T02:38:02.290Z,11.55
2023-01-30T02:41:00.249Z,11.05
2023-01-30T02:43:58.463Z,10.40
2023-01-30T02:46:32.312Z,11.93
2023-01-30T02:49:33.237Z,11.65
2023-01-30T02:52:02.397Z,10.52
2023-01-30T02:54:28.921Z,11.40
2023-01-30T02:56:58.683Z,11.02
2023-01-30T02:59:30.741Z,11.30
2023-01-30T03:02:29.602Z,10.35
2023-01-30T03:05:26.483Z,11.45
2023-01-30T03:08:10.668Z,11.15
2023-01-30T03:10:47.636Z,10.18
2023-01-30T03:13:40.443Z,11.30
2023-01-30T03:16:12.682Z,10.75
2023-01-30T03:18:43.586Z,11.20
2023-01-30T03:21:11.317Z,10.52
2023-01-30T03:23:37.920Z,10.85
2023-01-30T03:26:08.259Z,10.70
2023-01-30T03:28:35.555Z,11.02
2023-01-30T03:31:02.138Z,11.40
2023-01-30T03:33:28.704Z,11.32
2023-01-30T03:35:55.401Z,10.05
2023-01-30T03:38:21.987Z,10.95
2023-01-30T03:40:48.543Z,11.02
2023-01-30T03:43:15.003Z,11.75
2023-01-30T03:45:41.487Z,10.40
2023-01-30T03:48:07.971Z,10.55
2023-01-30T03:50:35.437Z,9.93
2023-01-30T03:53:01.981Z,11.15
2023-01-30T03:55:28.459Z,9.68
2023-01-30T03:57:58.328Z,11.77
2023-01-30T04:00:24.816Z,10.50
2023-01-30T04:02:52.071Z,10.35
2023-01-30T04:05:19.040Z,10.52
2023-01-30T04:07:45.779Z,9.43
2023-01-30T04:10:15.439Z,10.27
2023-01-30T04:12:42.875Z,9.48
2023-01-30T04:15:10.285Z,9.93
2023-01-30T04:17:36.744Z,10.02
2023-01-30T04:20:03.883Z,9.32
2023-01-30T04:22:30.633Z,10.70
2023-01-30T04:24:57.109Z,9.50
2023-01-30T04:27:23.601Z,10.05
2023-01-30T04:29:50.091Z,10.13
2023-01-30T04:32:16.536Z,9.85
2023-01-30T04:34:45.111Z,9.40
2023-01-30T04:37:12.520Z,9.30
2023-01-30T04:39:39.086Z,10.35
2023-01-30T04:42:05.683Z,9.80
2023-01-30T04:44:32.195Z,9.80
2023-01-30T04:46:58.695Z,10.63
2023-01-30T04:49:25.254Z,8.63
2023-01-30T04:51:51.887Z,10.13
2023-01-30T04:54:18.431Z,10.55
2023-01-30T04:56:44.916Z,10.88
2023-01-30T04:59:11.431Z,10.80
2023-01-30T05:01:39.194Z,10.40
2023-01-30T05:04:06.768Z,10.18
2023-01-30T05:06:34.300Z,10.18
2023-01-30T05:09:00.989Z,10.23
2023-01-30T05:11:28.642Z,9.77
2023-01-30T05:13:55.853Z,9.80
2023-01-30T05:16:23.495Z,9.77
2023-01-30T05:18:50.817Z,9.50
2023-01-30T05:21:19.746Z,8.90
2023-01-30T05:23:46.667Z,9.95
2023-01-30T05:26:14.730Z,8.57
2023-01-30T05:28:42.895Z,9.85
2023-01-30T05:31:12.854Z,9.30
2023-01-30T05:33:40.455Z,10.13
2023-01-30T05:36:08.095Z,9.70
2023-01-30T05:38:34.672Z,8.88
2023-01-30T05:41:06.616Z,9.80
2023-01-30T05:43:34.572Z,9.73
2023-01-30T05:46:04.670Z,9.93
2023-01-30T05:48:32.421Z,9.60
2023-01-30T05:51:00.126Z,8.98
2023-01-30T05:53:32.271Z,9.75
2023-01-30T05:56:01.221Z,9.35
2023-01-30T05:58:28.519Z,9.82
2023-01-30T06:00:59.565Z,10.30
2023-01-30T06:03:26.123Z,9.65
2023-01-30T06:05:52.620Z,10.77
2023-01-30T06:08:19.085Z,10.32
2023-01-30T06:10:45.543Z,9.63
2023-01-30T06:13:12.058Z,9.63
2023-01-30T06:15:38.750Z,9.63
2023-01-30T06:18:05.381Z,9.93
2023-01-30T06:20:31.958Z,9.65
2023-01-30T06:22:58.504Z,10.43
2023-01-30T06:25:25.035Z,10.75
2023-01-30T06:27:51.543Z,9.65
2023-01-30T06:30:18.298Z,10.43
2023-01-30T06:32:44.751Z,10.05
2023-01-30T06:35:11.198Z,10.38
2023-01-30T06:37:37.699Z,10.05
2023-01-30T06:40:04.596Z,11.63
2023-01-30T06:42:31.045Z,10.10
2023-01-30T06:44:57.493Z,11.52
2023-01-30T06:47:23.958Z,10.02
2023-01-30T06:49:50.423Z,9.98
2023-01-30T06:52:16.911Z,10.68
2023-01-30T06:54:43.435Z,10.88
2023-01-30T06:57:09.950Z,11.60
2023-01-30T06:59:36.436Z,10.55
2023-01-30T07:02:02.969Z,10.55
2023-01-30T07:04:29.469Z,10.77
2023-01-30T07:06:55.973Z,10.23
2023-01-30T07:09:22.499Z,10.85
2023-01-30T07:11:50.368Z,11.25
2023-01-30T07:14:16.883Z,10.50
2023-01-30T07:16:43.423Z,11.48
2023-01-30T07:19:10.006Z,11.18
2023-01-30T07:21:36.526Z,10.25
2023-01-30T07:24:02.987Z,9.85
2023-01-30T07:26:31.325Z,10.88
2023-01-30T07:28:57.870Z,10.57
2023-01-30T07:31:24.436Z,10.15
2023-01-30T07:33:50.958Z,10.63
2023-01-30T07:36:17.465Z,9.98
2023-01-30T07:38:43.941Z,9.65
2023-01-30T07:41:10.487Z,10.40
2023-01-30T07:43:36.934Z,10.90
2023-01-30T07:46:04.029Z,9.98
2023-01-30T07:48:30.496Z,10.45
2023-01-30T07:50:57.672Z,9.30
2023-01-30T07:53:24.253Z,10.45
2023-01-30T07:55:50.859Z,10.10
2023-01-30T07:58:17.763Z,10.68
2023-01-30T08:00:45.128Z,10.65
2023-01-30T08:03:16.161Z,9.65
2023-01-30T08:05:44.266Z,9.52
2023-01-30T08:08:10.990Z,9.77
2023-01-30T08:10:37.499Z,9.93
2023-01-30T08:13:03.960Z,9.73
2023-01-30T08:15:31.856Z,9.60
2023-01-30T08:17:58.562Z,9.50
2023-01-30T08:20:27.247Z,9.23
2023-01-30T08:22:54.245Z,9.23
2023-01-30T08:25:21.781Z,8.75
2023-01-30T08:27:48.351Z,9.38
2023-01-30T08:30:15.059Z,8.82
2023-01-30T08:32:41.609Z,8.80
2023-01-30T08:35:09.195Z,8.80
2023-01-30T08:37:35.796Z,9.52
2023-01-30T08:40:04.532Z,9.57
2023-01-30T08:42:31.142Z,9.32
2023-01-30T08:44:57.685Z,8.98
2023-01-30T08:47:24.175Z,9.02
2023-01-30T08:49:52.745Z,8.82
2023-01-30T08:52:20.384Z,9.73
2023-01-30T08:54:47.365Z,8.25
2023-01-30T08:57:14.913Z,9.45
2023-01-30T08:59:41.521Z,9.18
2023-01-30T09:02:11.690Z,9.70
2023-01-30T09:04:38.269Z,8.90
2023-01-30T09:07:04.901Z,8.45
2023-01-30T09:09:31.461Z,8.38
2023-01-30T09:11:57.983Z,9.07
2023-01-30T09:14:24.529Z,8.07
2023-01-30T09:16:55.775Z,8.75
2023-01-30T09:19:23.926Z,8.70
2023-01-30T09:21:51.720Z,8.52
2023-01-30T09:24:18.729Z,8.60
2023-01-30T09:26:45.440Z,9.13
2023-01-30T09:29:12.833Z,9.60
2023-01-30T09:31:39.729Z,8.70
2023-01-30T09:34:06.720Z,7.38
2023-01-30T09:36:33.568Z,9.23
2023-01-30T09:39:00.267Z,7.93
2023-01-30T09:41:35.430Z,8.23
2023-01-30T09:44:35.231Z,8.55
2023-01-30T09:47:09.643Z,8.18
2023-01-30T09:49:43.437Z,7.72
2023-01-30T09:52:25.056Z,8.43
2023-01-30T09:54:54.007Z,8.45
2023-01-30T09:57:25.632Z,7.72
2023-01-30T09:59:52.150Z,8.98
2023-01-30T10:02:31.905Z,8.35
2023-01-30T10:05:02.035Z,7.65
2023-01-30T10:08:15.339Z,7.35
2023-01-30T10:11:09.621Z,8.40
2023-01-30T10:14:05.085Z,7.93
2023-01-30T10:16:50.026Z,7.53
2023-01-30T10:19:35.723Z,8.00
2023-01-30T10:22:12.775Z,7.18
2023-01-30T10:25:04.001Z,7.00
2023-01-30T10:27:33.144Z,7.35
2023-01-30T10:30:03.775Z,7.53
2023-01-30T10:32:41.972Z,7.20
2023-01-30T10:35:19.380Z,6.80
2023-01-30T10:38:07.496Z,6.57
2023-01-30T10:40:46.946Z,6.57
2023-01-30T10:43:27.741Z,7.18
2023-01-30T10:45:59.617Z,7.45
2023-01-30T10:48:48.957Z,7.28
2023-01-30T10:51:23.645Z,7.03
2023-01-30T10:53:58.579Z,6.32
2023-01-30T10:56:47.403Z,6.82
2023-01-30T10:59:28.744Z,6.97
2023-01-30T11:02:40.623Z,6.78
2023-01-30T11:05:15.996Z,7.03
2023-01-30T11:07:44.016Z,7.15
2023-01-30T11:10:22.825Z,8.02
2023-01-30T11:12:55.991Z,7.40
2023-01-30T11:15:24.861Z,6.80
2023-01-30T11:18:22.790Z,7.05
2023-01-30T11:21:03.070Z,7.20
2023-01-30T11:23:34.931Z,7.13
2023-01-30T11:26:11.248Z,7.03
2023-01-30T11:28:44.332Z,6.68
2023-01-30T11:31:28.314Z,6.97
2023-01-30T11:34:03.153Z,7.35
2023-01-30T11:36:32.414Z,6.70
2023-01-30T11:39:06.254Z,7.25
2023-01-30T11:41:32.735Z,7.20
2023-01-30T11:44:05.318Z,7.20
2023-01-30T11:46:36.890Z,7.43
2023-01-30T11:49:49.431Z,6.88
2023-01-30T11:54:45.207Z,7.10
2023-01-30T11:57:15.318Z,6.82
2023-01-30T11:59:45.894Z,6.65
2023-01-30T12:02:19.616Z,5.55
2023-01-30T12:04:51.076Z,5.85
2023-01-30T12:07:25.995Z,6.05
2023-01-30T12:09:54.191Z,5.88
2023-01-30T12:12:28.939Z,5.13
2023-01-30T12:15:05.829Z,5.10
2023-01-30T12:17:46.565Z,5.60
2023-01-30T12:20:27.868Z,4.32
2023-01-30T12:23:11.377Z,4.57
2023-01-30T12:25:59.627Z,5.50
2023-01-30T12:28:45.395Z,5.25
2023-01-30T12:31:32.999Z,5.80
2023-01-30T12:34:00.351Z,4.80
2023-01-30T12:36:32.759Z,4.90
2023-01-30T12:39:14.950Z,5.88
2023-01-30T12:42:00.518Z,4.30
2023-01-30T12:44:51.809Z,3.30
2023-01-30T12:47:22.106Z,2.92
2023-01-30T12:50:01.278Z,3.15
2023-01-30T12:52:40.423Z,2.45
2023-01-30T12:55:09.984Z,2.42
2023-01-30T12:57:49.065Z,3.15
2023-01-30T13:00:37.025Z,2.40
2023-01-30T13:03:21.517Z,3.05
2023-01-30T13:06:10.676Z,3.03
2023-01-30T13:08:51.692Z,2.42
2023-01-30T13:11:39.836Z,2.42
2023-01-30T13:14:15.525Z,2.70
2023-01-30T13:16:41.994Z,2.50
2023-01-30T13:19:20.949Z,2.20
2023-01-30T13:21:56.277Z,2.40
2023-01-30T13:24:48.678Z,2.30
2023-01-30T13:27:19.997Z,2.78
2023-01-30T13:29:48.901Z,2.50
2023-01-30T13:32:35.615Z,2.58
2023-01-30T13:35:06.784Z,3.10
2023-01-30T13:37:34.281Z,2.92
2023-01-30T13:40:16.102Z,3.20
2023-01-30T13:42:50.015Z,3.53
2023-01-30T13:45:23.727Z,3.05
2023-01-30T13:47:53.247Z,3.33
2023-01-30T13:50:28.938Z,2.45
2023-01-30T13:53:22.684Z,2.95
2023-01-30T13:55:58.374Z,2.72
2023-01-30T13:58:43.882Z,2.20
2023-01-30T14:01:14.339Z,2.83
2023-01-30T14:03:42.041Z,2.60
2023-01-30T14:06:10.846Z,2.40
2023-01-30T14:08:46.419Z,2.88
2023-01-30T14:11:33.908Z,2.03
2023-01-30T14:14:04.398Z,2.05
2023-01-30T14:16:51.926Z,2.45
2023-01-30T14:19:24.199Z,2.60
2023-01-30T14:21:58.862Z,2.00
2023-01-30T14:24:27.494Z,2.58
2023-01-30T14:27:04.848Z,2.55
2023-01-30T14:29:37.460Z,2.30
2023-01-30T14:32:10.062Z,2.43
2023-01-30T14:34:41.630Z,2.80
2023-01-30T14:37:39.205Z,2.70
2023-01-30T14:40:36.031Z,4.28
2023-01-30T14:43:20.335Z,2.58
2023-01-30T14:45:51.503Z,3.13
2023-01-30T14:48:39.815Z,3.47
2023-01-30T14:51:45.372Z,2.88
2023-01-30T14:54:11.837Z,3.42
2023-01-30T14:56:58.587Z,2.95
2023-01-30T14:59:33.857Z,3.10
2023-01-30T15:02:21.541Z,2.40
2023-01-30T15:04:57.677Z,2.22
2023-01-30T15:07:41.308Z,2.42
2023-01-30T15:10:23.686Z,2.05
2023-01-30T15:13:04.535Z,2.40
2023-01-30T15:15:49.435Z,2.25
2023-01-30T15:18:27.987Z,2.95
2023-01-30T15:21:19.593Z,3.03
2023-01-30T15:24:00.894Z,3.55
2023-01-30T15:26:56.686Z,3.45
2023-01-30T15:29:44.503Z,4.40
2023-01-30T15:32:20.080Z,4.60
2023-01-30T15:34:58.331Z,5.30
2023-01-30T15:37:30.983Z,5.05
2023-01-30T15:40:15.656Z,5.63
2023-01-30T15:42:51.584Z,5.55
2023-01-30T15:45:27.989Z,5.38
2023-01-30T15:48:38.024Z,4.97
2023-01-30T15:51:05.063Z,4.53
2023-01-30T15:53:36.042Z,5.00
2023-01-30T15:56:07.174Z,3.92
2023-01-30T15:58:38.056Z,4.40
2023-01-30T16:01:04.905Z,3.67
2023-01-30T16:03:36.617Z,3.90
2023-01-30T16:06:03.838Z,3.92
2023-01-30T16:08:32.879Z,3.70
2023-01-30T16:11:00.742Z,3.78
2023-01-30T16:13:29.408Z,3.90
2023-01-30T16:16:05.076Z,4.47
2023-01-30T16:18:46.125Z,4.93
2023-01-30T16:21:28.530Z,4.47
2023-01-30T16:24:00.897Z,7.10
2023-01-30T16:26:27.736Z,5.97
2023-01-30T16:29:02.387Z,5.65
2023-01-30T16:31:39.202Z,5.75
2023-01-30T16:34:05.858Z,6.32
2023-01-30T16:36:39.638Z,5.90
2023-01-30T16:39:27.745Z,6.47
2023-01-30T16:41:56.190Z,5.10
2023-01-30T16:44:23.918Z,6.15
2023-01-30T16:46:54.771Z,5.07
2023-01-30T16:49:30.159Z,7.75
2023-01-30T16:52:05.351Z,7.45
2023-01-30T16:54:46.149Z,8.98
2023-01-30T16:57:37.366Z,8.30
2023-01-30T17:00:10.093Z,8.07
2023-01-30T17:02:40.031Z,7.70
2023-01-30T17:05:20.521Z,8.43
2023-01-30T17:07:48.397Z,9.38
2023-01-30T17:10:39.578Z,9.60
2023-01-30T17:13:35.735Z,8.02
2023-01-30T17:16:27.064Z,8.70
2023-01-30T17:18:56.022Z,8.60
2023-01-30T17:21:25.446Z,8.70
2023-01-30T17:23:59.593Z,8.10
2023-01-30T17:26:26.150Z,8.90
2023-01-30T17:28:52.694Z,9.13
2023-01-30T17:31:20.935Z,9.50
2023-01-30T17:33:47.660Z,9.85
2023-01-30T17:36:23.073Z,9.52
2023-01-30T17:38:50.696Z,9.20
2023-01-30T17:41:22.946Z,9.02
2023-01-30T17:43:50.709Z,8.65
2023-01-30T17:46:18.090Z,10.43
2023-01-30T17:48:44.744Z,9.55
2023-01-30T17:51:14.339Z,9.13
2023-01-30T17:53:41.881Z,9.18
2023-01-30T17:56:30.044Z,8.40
2023-01-30T17:58:56.520Z,10.35
2023-01-30T18:01:23.001Z,9.60
2023-01-30T18:03:49.548Z,9.32
2023-01-30T18:06:16.404Z,8.00
2023-01-30T18:08:42.976Z,8.85
2023-01-30T18:11:11.847Z,11.30
2023-01-30T18:13:48.167Z,9.15
2023-01-30T18:16:19.868Z,8.80
2023-01-30T18:18:46.711Z,5.35
2023-01-30T18:21:13.181Z,4.57
2023-01-30T18:23:39.689Z,4.50
2023-01-30T18:26:06.275Z,4.70
2023-01-30T18:28:32.884Z,4.00
2023-01-30T18:30:59.626Z,5.15
2023-01-30T18:33:26.237Z,4.75
2023-01-30T18:35:52.725Z,5.15
2023-01-30T18:38:19.236Z,5.28
2023-01-30T18:40:45.854Z,4.40
2023-01-30T18:43:12.429Z,3.75
2023-01-30T18:45:38.944Z,3.88
2023-01-30T18:48:05.675Z,4.13
2023-01-30T18:50:32.257Z,4.50
2023-01-30T18:52:58.797Z,4.70
2023-01-30T18:55:25.690Z,4.43
2023-01-30T18:57:52.634Z,4.82
2023-01-30T19:00:21.350Z,4.40
2023-01-30T19:02:52.885Z,4.40
2023-01-30T19:05:20.124Z,5.20
2023-01-30T19:07:46.728Z,5.22
2023-01-30T19:10:17.345Z,4.45
2023-01-30T19:13:03.437Z,4.57
2023-01-30T19:15:30.023Z,4.97
2023-01-30T19:17:57.201Z,4.85
2023-01-30T19:20:24.811Z,4.65
2023-01-30T19:22:51.590Z,5.03
2023-01-30T19:25:18.140Z,4.32
2023-01-30T19:27:44.745Z,5.15
2023-01-30T19:30:11.826Z,4.70
2023-01-30T19:32:38.320Z,5.63
2023-01-30T19:35:05.443Z,4.93
2023-01-30T19:37:31.943Z,5.45
2023-01-30T19:39:58.519Z,4.97
2023-01-30T19:42:25.163Z,5.45
2023-01-30T19:44:51.659Z,5.18
2023-01-30T19:47:21.692Z,4.85
2023-01-30T19:49:48.426Z,4.80
2023-01-30T19:52:14.905Z,5.18
2023-01-30T19:54:41.390Z,6.00
2023-01-30T19:57:07.937Z,5.35
2023-01-30T19:59:38.677Z,5.45
2023-01-30T20:02:06.758Z,4.30
2023-01-30T20:04:33.296Z,4.35
2023-01-30T20:06:59.816Z,4.30
2023-01-30T20:09:26.362Z,4.32
2023-01-30T20:11:52.850Z,4.72
2023-01-30T20:14:19.336Z,4.22
2023-01-30T20:16:46.314Z,3.95
2023-01-30T20:19:15.428Z,3.97
2023-01-30T20:21:42.901Z,4.00
2023-01-30T20:24:13.704Z,4.22
2023-01-30T20:26:40.800Z,3.70
2023-01-30T20:29:09.168Z,4.45
2023-01-30T20:31:38.257Z,4.10
2023-01-30T20:34:07.235Z,4.38
2023-01-30T20:36:34.129Z,3.58
2023-01-30T20:39:04.069Z,5.05
2023-01-30T20:41:32.457Z,3.97
2023-01-30T20:43:59.443Z,3.88
2023-01-30T20:46:31.562Z,4.25
2023-01-30T20:49:01.284Z,3.75
2023-01-30T20:51:30.456Z,4.10
2023-01-30T20:54:05.609Z,4.32
2023-01-30T20:56:41.647Z,3.75
2023-01-30T20:59:08.758Z,3.95
2023-01-30T21:01:36.171Z,3.85
2023-01-30T21:04:08.252Z,3.92
2023-01-30T21:06:42.500Z,4.15
2023-01-30T21:09:17.742Z,4.28
2023-01-30T21:11:44.524Z,4.10
2023-01-30T21:14:12.732Z,4.00
2023-01-30T21:16:39.545Z,3.97
2023-01-30T21:19:08.157Z,4.72
2023-01-30T21:21:41.178Z,4.10
2023-01-30T21:24:12.178Z,3.95
2023-01-30T21:26:41.281Z,3.50
2023-01-30T21:29:08.641Z,4.88
2023-01-30T21:31:36.134Z,4.10
2023-01-30T21:34:03.321Z,3.60
2023-01-30T21:36:29.837Z,3.90
2023-01-30T21:39:15.198Z,3.30
2023-01-30T21:41:58.778Z,4.70
2023-01-30T21:44:27.879Z,4.05
2023-01-30T21:46:54.873Z,4.75
2023-01-30T21:49:22.138Z,4.15
2023-01-30T21:51:49.319Z,4.10
2023-01-30T21:54:17.599Z,4.72
2023-01-30T21:56:44.861Z,5.10
2023-01-30T21:59:12.297Z,5.38
2023-01-30T22:01:40.088Z,4.88
2023-01-30T22:04:09.128Z,4.22
2023-01-30T22:06:37.769Z,3.97
2023-01-30T22:09:05.921Z,4.68
2023-01-30T22:11:34.537Z,4.63
2023-01-30T22:14:01.045Z,4.50
2023-01-30T22:16:29.214Z,4.20
2023-01-30T22:19:01.487Z,4.18
2023-01-30T22:21:32.302Z,3.95
2023-01-30T22:23:59.254Z,4.50
2023-01-30T22:26:26.701Z,3.78
2023-01-30T22:28:55.398Z,4.25
2023-01-30T22:31:23.393Z,4.70
2023-01-30T22:33:55.144Z,4.00
2023-01-30T22:36:27.154Z,4.18
2023-01-30T22:38:54.341Z,4.07
2023-01-30T22:41:26.355Z,4.18
2023-01-30T22:43:55.594Z,4.03
2023-01-30T22:46:31.530Z,4.38
2023-01-30T22:48:59.328Z,4.43
2023-01-30T22:51:31.588Z,5.18
2023-01-30T22:54:03.636Z,4.75
2023-01-30T22:56:35.873Z,5.50
2023-01-30T22:59:02.368Z,5.55
2023-01-30T23:01:32.062Z,5.38
2023-01-30T23:04:01.648Z,5.75
2023-01-30T23:06:30.057Z,4.88
2023-01-30T23:08:56.605Z,5.55
2023-01-30T23:11:38.237Z,5.40
2023-01-30T23:14:11.129Z,5.45
2023-01-30T23:16:39.625Z,5.13
2023-01-30T23:19:07.657Z,5.68
2023-01-30T23:21:39.114Z,6.07
2023-01-30T23:24:11.938Z,5.18
2023-01-30T23:26:41.221Z,5.50
2023-01-30T23:29:10.241Z,5.78
2023-01-30T23:31:37.430Z,5.72
2023-01-30T23:34:06.820Z,5.28
2023-01-30T23:36:34.364Z,6.05
2023-01-30T23:39:01.200Z,5.82
2023-01-30T23:41:30.620Z,5.22
2023-01-30T23:43:58.345Z,5.82
2023-01-30T23:46:30.999Z,6.25
2023-01-30T23:48:59.539Z,6.67
2023-01-30T23:51:29.267Z,5.43
2023-01-30T23:53:56.415Z,6.25
2023-01-30T23:56:25.344Z,5.53
2023-01-30T23:58:51.890Z,5.82
